createdAt,value
2023-03-13T00:01:43.021Z,-8.76
2023-03-13T00:04:11.109Z,-8.78
2023-03-13T00:06:40.657Z,-8.79
2023-03-13T00:09:10.317Z,-8.80
2023-03-13T00:11:38.456Z,-8.79
2023-03-13T00:14:08.031Z,-8.92
2023-03-13T00:16:37.515Z,-8.93
2023-03-13T00:19:08.009Z,-8.94
2023-03-13T00:21:37.540Z,-9.10
2023-03-13T00:24:05.648Z,-9.20
2023-03-13T00:26:33.497Z,-9.20
2023-03-13T00:29:01.258Z,-9.08
2023-03-13T00:31:31.203Z,-9.10
2023-03-13T00:34:01.006Z,-9.20
2023-03-13T00:36:31.559Z,-9.12
2023-03-13T00:39:00.093Z,-9.09
2023-03-13T00:41:29.769Z,-9.11
2023-03-13T00:43:58.523Z,-9.01
2023-03-13T00:46:29.689Z,-9.09
2023-03-13T00:48:59.544Z,-9.10
2023-03-13T00:51:28.058Z,-9.25
2023-03-13T00:54:00.032Z,-9.46
2023-03-13T00:56:29.375Z,-9.54
2023-03-13T00:58:57.163Z,-9.63
2023-03-13T01:01:27.193Z,-9.72
2023-03-13T01:03:57.405Z,-9.81
2023-03-13T01:06:27.018Z,-9.94
2023-03-13T01:08:55.706Z,-10.05
2023-03-13T01:11:27.201Z,-9.92
2023-03-13T01:13:56.876Z,-9.88
2023-03-13T01:16:25.914Z,-10.00
2023-03-13T01:18:55.785Z,-10.05
2023-03-13T01:21:24.832Z,-10.08
2023-03-13T01:23:53.887Z,-10.18
2023-03-13T01:26:22.131Z,-10.24
2023-03-13T01:28:51.548Z,-10.32
2023-03-13T01:31:21.511Z,-10.37
2023-03-13T01:33:51.968Z,-10.43
2023-03-13T01:36:19.820Z,-10.48
2023-03-13T01:38:49.705Z,-10.48
2023-03-13T01:41:17.719Z,-10.52
2023-03-13T01:43:46.855Z,-10.58
2023-03-13T01:46:18.577Z,-10.50
2023-03-13T01:48:50.722Z,-10.41
2023-03-13T01:51:23.693Z,-10.51
2023-03-13T01:53:55.783Z,-10.60
2023-03-13T01:56:28.665Z,-10.70
2023-03-13T01:58:59.895Z,-10.74
2023-03-13T02:01:29.595Z,-10.82
2023-03-13T02:03:58.857Z,-10.85
2023-03-13T02:06:30.735Z,-10.90
2023-03-13T02:09:00.894Z,-10.97
2023-03-13T02:11:40.914Z,-10.99
2023-03-13T02:14:08.841Z,-11.02
2023-03-13T02:16:38.415Z,-11.06
2023-03-13T02:19:17.454Z,-11.13
2023-03-13T02:21:51.277Z,-11.06
2023-03-13T02:24:30.534Z,-10.91
2023-03-13T02:26:59.678Z,-10.97
2023-03-13T02:29:28.711Z,-11.06
2023-03-13T02:31:57.006Z,-11.03
2023-03-13T02:34:29.018Z,-11.08
2023-03-13T02:36:58.851Z,-11.09
2023-03-13T02:39:29.167Z,-11.15
2023-03-13T02:41:57.767Z,-11.18
2023-03-13T02:44:27.215Z,-11.16
2023-03-13T02:46:55.009Z,-11.15
2023-03-13T02:49:26.543Z,-11.19
2023-03-13T02:51:55.893Z,-11.25
2023-03-13T02:54:28.431Z,-11.26
2023-03-13T02:56:59.646Z,-11.31
2023-03-13T02:59:28.919Z,-11.33
2023-03-13T03:01:56.768Z,-11.33
2023-03-13T03:04:26.520Z,-11.32
2023-03-13T03:06:54.936Z,-11.34
2023-03-13T03:09:23.621Z,-11.32
2023-03-13T03:11:51.903Z,-11.32
2023-03-13T03:14:19.869Z,-11.31
2023-03-13T03:16:49.077Z,-11.25
2023-03-13T03:19:17.005Z,-11.22
2023-03-13T03:21:45.411Z,-11.22
2023-03-13T03:24:13.220Z,-11.24
2023-03-13T03:26:41.050Z,-11.26
2023-03-13T03:29:08.917Z,-11.19
2023-03-13T03:31:36.812Z,-11.19
2023-03-13T03:34:06.063Z,-11.14
2023-03-13T03:36:33.862Z,-11.08
2023-03-13T03:39:01.588Z,-11.10
2023-03-13T03:41:29.377Z,-11.09
2023-03-13T03:43:57.118Z,-11.07
2023-03-13T03:46:25.499Z,-11.07
2023-03-13T03:48:53.364Z,-11.08
2023-03-13T03:51:22.610Z,-11.08
2023-03-13T03:53:50.592Z,-11.14
2023-03-13T03:56:18.400Z,-11.15
2023-03-13T03:58:46.285Z,-11.20
2023-03-13T04:01:14.127Z,-11.22
2023-03-13T04:03:41.931Z,-11.28
2023-03-13T04:06:10.164Z,-11.33
2023-03-13T04:08:39.527Z,-11.37
2023-03-13T04:11:07.339Z,-11.40
2023-03-13T04:13:35.309Z,-11.46
2023-03-13T04:16:08.277Z,-11.46
2023-03-13T04:18:36.077Z,-11.51
2023-03-13T04:21:05.622Z,-11.49
2023-03-13T04:23:33.477Z,-11.47
2023-03-13T04:26:02.818Z,-11.30
2023-03-13T04:28:30.791Z,-11.37
2023-03-13T04:30:58.588Z,-11.46
2023-03-13T04:33:26.590Z,-11.56
2023-03-13T04:35:54.592Z,-11.69
2023-03-13T04:38:22.430Z,-11.76
2023-03-13T04:40:50.283Z,-11.79
2023-03-13T04:43:19.386Z,-11.89
2023-03-13T04:45:47.646Z,-11.84
2023-03-13T04:48:15.465Z,-11.88
2023-03-13T04:50:43.266Z,-11.93
2023-03-13T04:53:10.993Z,-11.93
2023-03-13T04:55:38.765Z,-11.93
2023-03-13T04:58:06.623Z,-11.89
2023-03-13T05:00:35.841Z,-11.81
2023-03-13T05:03:03.578Z,-11.69
2023-03-13T05:05:31.434Z,-11.59
2023-03-13T05:07:59.304Z,-11.40
2023-03-13T05:10:27.085Z,-11.28
2023-03-13T05:12:54.899Z,-11.14
2023-03-13T05:15:22.678Z,-10.95
2023-03-13T05:17:54.225Z,-10.86
2023-03-13T05:20:22.437Z,-10.79
2023-03-13T05:22:50.814Z,-10.68
2023-03-13T05:25:18.764Z,-10.35
2023-03-13T05:27:46.949Z,-9.83
2023-03-13T05:30:14.901Z,-9.47
2023-03-13T05:32:42.827Z,-9.38
2023-03-13T05:35:12.196Z,-9.03
2023-03-13T05:37:41.424Z,-8.95
2023-03-13T05:40:11.000Z,-8.89
2023-03-13T05:42:38.888Z,-8.82
2023-03-13T05:45:08.823Z,-8.58
2023-03-13T05:47:36.671Z,-8.41
2023-03-13T05:50:04.741Z,-8.27
2023-03-13T05:52:34.768Z,-8.15
2023-03-13T05:55:02.545Z,-8.00
2023-03-13T05:57:30.354Z,-7.78
2023-03-13T05:59:58.120Z,-7.65
2023-03-13T06:02:25.953Z,-7.35
2023-03-13T06:04:53.819Z,-7.05
2023-03-13T06:07:21.859Z,-6.80
2023-03-13T06:09:50.983Z,-6.60
2023-03-13T06:12:18.711Z,-6.51
2023-03-13T06:14:46.474Z,-6.38
2023-03-13T06:17:14.278Z,-6.23
2023-03-13T06:19:42.058Z,-6.02
2023-03-13T06:22:09.854Z,-5.82
2023-03-13T06:24:37.665Z,-5.65
2023-03-13T06:27:08.501Z,-5.46
2023-03-13T06:29:36.217Z,-5.30
2023-03-13T06:32:04.429Z,-5.12
2023-03-13T06:34:32.532Z,-4.88
2023-03-13T06:37:00.577Z,-4.73
2023-03-13T06:39:28.750Z,-4.53
2023-03-13T06:41:56.574Z,-4.36
2023-03-13T06:44:25.877Z,-4.21
2023-03-13T06:46:53.827Z,-3.99
2023-03-13T06:49:21.708Z,-3.79
2023-03-13T06:51:49.515Z,-3.53
2023-03-13T06:54:17.413Z,-3.34
2023-03-13T06:56:45.155Z,-2.98
2023-03-13T06:59:12.965Z,-2.92
2023-03-13T07:01:42.213Z,-2.67
2023-03-13T07:04:13.508Z,-2.43
2023-03-13T07:06:41.723Z,-2.34
2023-03-13T07:09:10.338Z,-2.11
2023-03-13T07:11:38.266Z,-2.07
2023-03-13T07:14:16.672Z,-2.02
2023-03-13T07:16:47.320Z,-1.74
2023-03-13T07:19:15.595Z,-1.54
2023-03-13T07:21:44.098Z,-1.27
2023-03-13T07:24:12.044Z,-1.35
2023-03-13T07:26:42.577Z,-1.23
2023-03-13T07:29:16.544Z,-0.89
2023-03-13T07:31:44.369Z,-0.53
2023-03-13T07:34:13.621Z,-0.34
2023-03-13T07:36:41.797Z,-0.26
2023-03-13T07:39:09.647Z,0.01
2023-03-13T07:41:38.946Z,0.22
2023-03-13T07:44:07.646Z,0.27
2023-03-13T07:46:35.366Z,0.35
2023-03-13T07:49:03.112Z,0.40
2023-03-13T07:51:42.883Z,0.71
2023-03-13T07:54:11.798Z,0.98
2023-03-13T07:56:39.773Z,0.99
2023-03-13T07:59:07.915Z,0.91
2023-03-13T08:01:36.004Z,0.85
2023-03-13T08:04:04.118Z,0.87
2023-03-13T08:06:36.826Z,0.97
2023-03-13T08:09:05.608Z,0.91
2023-03-13T08:11:33.418Z,1.19
2023-03-13T08:14:01.262Z,1.12
2023-03-13T08:16:31.080Z,1.14
2023-03-13T08:19:00.209Z,1.17
2023-03-13T08:21:29.798Z,0.98
2023-03-13T08:24:01.354Z,1.29
2023-03-13T08:26:31.224Z,1.16
2023-03-13T08:29:01.252Z,1.20
2023-03-13T08:31:31.553Z,1.12
2023-03-13T08:33:59.884Z,1.28
2023-03-13T08:36:30.398Z,1.32
2023-03-13T08:39:02.130Z,1.28
2023-03-13T08:41:32.228Z,1.16
2023-03-13T08:43:59.960Z,0.96
2023-03-13T08:46:29.882Z,0.98
2023-03-13T08:48:57.781Z,1.07
2023-03-13T08:51:27.150Z,1.08
2023-03-13T08:53:57.710Z,0.95
2023-03-13T08:56:30.354Z,0.92
2023-03-13T08:58:59.849Z,0.85
2023-03-13T09:01:29.663Z,0.80
2023-03-13T09:03:57.986Z,0.79
2023-03-13T09:06:26.010Z,0.91
2023-03-13T09:08:53.850Z,1.01
2023-03-13T09:11:22.776Z,1.18
2023-03-13T09:13:52.574Z,1.40
2023-03-13T09:16:22.545Z,1.53
2023-03-13T09:18:51.260Z,1.51
2023-03-13T09:21:21.218Z,1.53
2023-03-13T09:23:49.896Z,1.61
2023-03-13T09:26:19.608Z,1.66
2023-03-13T09:28:48.886Z,1.46
2023-03-13T09:31:19.712Z,1.74
2023-03-13T09:33:49.151Z,1.53
2023-03-13T09:36:20.844Z,1.66
2023-03-13T09:38:49.715Z,1.61
2023-03-13T09:41:24.681Z,1.49
2023-03-13T09:43:58.286Z,1.59
2023-03-13T09:46:33.260Z,1.65
2023-03-13T09:49:03.886Z,1.76
2023-03-13T09:51:36.641Z,1.86
2023-03-13T09:54:09.994Z,1.92
2023-03-13T09:56:45.249Z,1.80
2023-03-13T09:59:19.492Z,1.83
2023-03-13T10:01:51.433Z,1.88
2023-03-13T10:04:30.038Z,1.82
2023-03-13T10:06:58.143Z,1.92
2023-03-13T10:09:30.755Z,2.10
2023-03-13T10:12:07.004Z,1.69
2023-03-13T10:14:42.928Z,1.83
2023-03-13T10:17:21.119Z,2.08
2023-03-13T10:19:55.217Z,2.13
2023-03-13T10:22:27.456Z,2.00
2023-03-13T10:24:59.314Z,1.85
2023-03-13T10:27:27.531Z,1.86
2023-03-13T10:29:55.362Z,1.97
2023-03-13T10:32:25.247Z,1.83
2023-03-13T10:34:58.220Z,1.95
2023-03-13T10:37:28.517Z,1.76
2023-03-13T10:40:13.297Z,1.58
2023-03-13T10:42:45.990Z,1.55
2023-03-13T10:45:18.729Z,1.64
2023-03-13T10:47:55.523Z,1.53
2023-03-13T10:50:25.768Z,1.43
2023-03-13T10:52:54.823Z,1.59
2023-03-13T10:55:24.152Z,1.18
2023-03-13T10:57:59.833Z,1.17
2023-03-13T11:00:35.591Z,1.20
2023-03-13T11:03:08.018Z,1.33
2023-03-13T11:05:42.555Z,1.44
2023-03-13T11:08:20.921Z,1.41
2023-03-13T11:10:57.148Z,1.37
2023-03-13T11:13:37.618Z,1.37
2023-03-13T11:16:23.163Z,1.36
2023-03-13T11:19:20.938Z,1.44
2023-03-13T11:21:57.812Z,1.59
2023-03-13T11:24:31.843Z,1.52
2023-03-13T11:27:09.799Z,1.53
2023-03-13T11:29:47.397Z,1.57
2023-03-13T11:32:23.928Z,1.72
2023-03-13T11:34:59.633Z,1.53
2023-03-13T11:37:32.681Z,1.63
2023-03-13T11:40:07.317Z,1.65
2023-03-13T11:42:51.744Z,1.71
2023-03-13T11:45:36.554Z,1.49
2023-03-13T11:48:10.646Z,1.47
2023-03-13T11:50:48.622Z,1.60
2023-03-13T11:53:38.378Z,1.61
2023-03-13T11:56:13.667Z,1.53
2023-03-13T11:59:06.049Z,1.53
2023-03-13T12:01:36.882Z,1.61
2023-03-13T12:04:12.864Z,1.63
2023-03-13T12:06:47.869Z,1.55
2023-03-13T12:09:21.068Z,1.43
2023-03-13T12:11:55.879Z,1.49
2023-03-13T12:14:27.432Z,1.50
2023-03-13T12:16:59.872Z,1.58
2023-03-13T12:19:33.829Z,1.67
2023-03-13T12:22:13.820Z,1.68
2023-03-13T12:24:49.441Z,1.82
2023-03-13T12:27:22.231Z,1.86
2023-03-13T12:29:56.843Z,1.91
2023-03-13T12:32:30.613Z,1.88
2023-03-13T12:35:08.182Z,2.01
2023-03-13T12:37:45.196Z,1.96
2023-03-13T12:40:21.457Z,1.95
2023-03-13T12:42:56.069Z,2.03
2023-03-13T12:45:26.644Z,1.88
2023-03-13T12:48:18.714Z,1.83
2023-03-13T12:51:01.112Z,1.90
2023-03-13T12:54:05.612Z,1.84
2023-03-13T12:56:47.583Z,1.80
2023-03-13T12:59:20.475Z,1.82
2023-03-13T13:01:52.056Z,1.68
2023-03-13T13:04:23.064Z,1.71
2023-03-13T13:06:55.113Z,1.64
2023-03-13T13:09:26.282Z,1.58
2023-03-13T13:11:56.406Z,1.54
2023-03-13T13:15:05.876Z,1.52
2023-03-13T13:18:01.591Z,1.49
2023-03-13T13:20:33.416Z,1.50
2023-03-13T13:23:33.674Z,1.40
2023-03-13T13:26:47.148Z,1.35
2023-03-13T13:29:48.341Z,1.39
2023-03-13T13:32:33.377Z,1.37
2023-03-13T13:35:07.488Z,1.37
2023-03-13T13:37:35.574Z,1.32
2023-03-13T13:40:29.600Z,1.41
2023-03-13T13:42:59.712Z,1.41
2023-03-13T13:45:30.964Z,1.34
2023-03-13T13:48:30.323Z,1.40
2023-03-13T13:51:34.487Z,1.46
2023-03-13T13:54:03.769Z,1.34
2023-03-13T13:56:42.094Z,1.34
2023-03-13T13:59:44.409Z,1.32
2023-03-13T14:02:21.773Z,1.37
2023-03-13T14:04:57.318Z,1.35
2023-03-13T14:07:31.245Z,1.34
2023-03-13T14:10:07.195Z,1.15
2023-03-13T14:12:36.993Z,1.25
2023-03-13T14:15:15.994Z,1.25
2023-03-13T14:17:46.062Z,1.20
2023-03-13T14:20:31.560Z,1.19
2023-03-13T14:23:01.851Z,1.28
2023-03-13T14:25:41.612Z,1.09
2023-03-13T14:28:17.939Z,1.07
2023-03-13T14:30:49.923Z,1.15
2023-03-13T14:33:18.219Z,1.01
2023-03-13T14:35:48.473Z,0.99
2023-03-13T14:38:19.444Z,1.02
2023-03-13T14:40:47.452Z,1.00
2023-03-13T14:43:22.566Z,0.99
2023-03-13T14:45:51.064Z,0.93
2023-03-13T14:48:23.860Z,0.99
2023-03-13T14:51:13.904Z,1.04
2023-03-13T14:53:55.230Z,1.07
2023-03-13T14:56:32.767Z,1.08
2023-03-13T14:59:17.186Z,1.06
2023-03-13T15:01:45.092Z,1.06
2023-03-13T15:04:13.167Z,1.00
2023-03-13T15:06:42.457Z,0.98
2023-03-13T15:09:19.802Z,1.02
2023-03-13T15:12:01.300Z,1.06
2023-03-13T15:14:41.099Z,1.05
2023-03-13T15:17:15.768Z,1.00
2023-03-13T15:19:44.172Z,1.03
2023-03-13T15:22:16.195Z,0.96
2023-03-13T15:24:56.144Z,0.99
2023-03-13T15:27:32.641Z,1.08
2023-03-13T15:30:01.524Z,1.10
2023-03-13T15:32:31.844Z,1.05
2023-03-13T15:35:01.840Z,1.08
2023-03-13T15:37:31.887Z,1.11
2023-03-13T15:39:59.624Z,1.16
2023-03-13T15:42:27.714Z,1.23
2023-03-13T15:44:55.490Z,1.14
2023-03-13T15:47:23.400Z,1.12
2023-03-13T15:49:51.352Z,1.14
2023-03-13T15:52:22.524Z,1.23
2023-03-13T15:54:52.305Z,1.32
2023-03-13T15:57:23.195Z,1.41
2023-03-13T15:59:51.640Z,1.42
2023-03-13T16:02:20.863Z,1.45
2023-03-13T16:04:50.411Z,1.54
2023-03-13T16:07:20.834Z,1.59
2023-03-13T16:09:49.164Z,1.63
2023-03-13T16:12:18.257Z,1.64
2023-03-13T16:14:46.041Z,1.79
2023-03-13T16:17:16.237Z,1.90
2023-03-13T16:19:44.059Z,1.92
2023-03-13T16:22:12.274Z,1.92
2023-03-13T16:24:40.168Z,1.95
2023-03-13T16:27:14.405Z,1.98
2023-03-13T16:29:43.749Z,2.10
2023-03-13T16:32:13.226Z,2.17
2023-03-13T16:34:41.056Z,2.21
2023-03-13T16:37:15.760Z,2.26
2023-03-13T16:39:44.581Z,2.24
2023-03-13T16:42:13.258Z,2.16
2023-03-13T16:44:41.298Z,2.14
2023-03-13T16:47:23.931Z,2.24
2023-03-13T16:49:51.675Z,2.28
2023-03-13T16:52:19.826Z,2.27
2023-03-13T16:54:48.244Z,2.32
2023-03-13T16:57:19.243Z,2.37
2023-03-13T16:59:47.140Z,2.34
2023-03-13T17:02:16.519Z,2.36
2023-03-13T17:04:45.833Z,2.42
2023-03-13T17:07:20.355Z,2.46
2023-03-13T17:09:48.119Z,2.51
2023-03-13T17:12:16.329Z,2.53
2023-03-13T17:14:44.088Z,2.57
2023-03-13T17:17:14.155Z,2.58
2023-03-13T17:19:41.919Z,2.58
2023-03-13T17:22:13.519Z,2.63
2023-03-13T17:24:42.386Z,2.55
2023-03-13T17:27:13.598Z,2.63
2023-03-13T17:29:41.542Z,2.63
2023-03-13T17:32:11.373Z,2.62
2023-03-13T17:34:40.080Z,2.69
2023-03-13T17:37:15.456Z,2.75
2023-03-13T17:39:44.377Z,2.76
2023-03-13T17:42:12.316Z,2.78
2023-03-13T17:44:41.168Z,2.79
2023-03-13T17:47:14.437Z,2.79
2023-03-13T17:49:42.397Z,2.73
2023-03-13T17:52:14.863Z,2.77
2023-03-13T17:54:44.510Z,2.84
2023-03-13T17:57:16.248Z,2.90
2023-03-13T17:59:44.640Z,2.82
2023-03-13T18:02:14.311Z,2.91
2023-03-13T18:04:45.016Z,2.90
2023-03-13T18:07:22.315Z,2.93
2023-03-13T18:09:50.079Z,2.97
2023-03-13T18:12:18.180Z,2.99
2023-03-13T18:14:45.954Z,2.95
2023-03-13T18:17:18.798Z,2.96
2023-03-13T18:19:47.316Z,2.90
2023-03-13T18:22:19.018Z,2.97
2023-03-13T18:24:46.830Z,3.03
2023-03-13T18:27:16.491Z,3.06
2023-03-13T18:29:45.549Z,3.10
2023-03-13T18:32:14.636Z,3.10
2023-03-13T18:34:42.598Z,3.21
2023-03-13T18:37:21.007Z,3.25
2023-03-13T18:39:51.183Z,3.31
2023-03-13T18:42:19.184Z,3.31
2023-03-13T18:44:47.332Z,3.37
2023-03-13T18:47:18.026Z,3.39
2023-03-13T18:49:46.961Z,3.47
2023-03-13T18:52:14.925Z,3.48
2023-03-13T18:54:44.384Z,3.52
2023-03-13T18:57:14.632Z,3.63
2023-03-13T18:59:43.075Z,3.70
2023-03-13T19:02:14.634Z,3.71
2023-03-13T19:04:42.683Z,3.67
2023-03-13T19:07:16.044Z,3.76
2023-03-13T19:09:47.090Z,3.79
2023-03-13T19:12:16.006Z,3.84
2023-03-13T19:14:44.022Z,3.86
2023-03-13T19:17:17.518Z,3.89
2023-03-13T19:19:45.255Z,3.98
2023-03-13T19:22:14.758Z,4.00
2023-03-13T19:24:42.496Z,4.01
2023-03-13T19:27:14.813Z,4.06
2023-03-13T19:29:42.550Z,4.09
2023-03-13T19:32:14.589Z,4.11
2023-03-13T19:34:42.356Z,4.12
2023-03-13T19:37:11.786Z,4.17
2023-03-13T19:39:39.641Z,4.21
2023-03-13T19:42:08.311Z,4.24
2023-03-13T19:44:40.309Z,4.24
2023-03-13T19:47:08.274Z,4.27
2023-03-13T19:49:35.997Z,4.32
2023-03-13T19:52:03.808Z,4.34
2023-03-13T19:54:31.761Z,4.42
2023-03-13T19:56:59.436Z,4.45
2023-03-13T19:59:27.767Z,4.38
2023-03-13T20:01:57.205Z,4.54
2023-03-13T20:04:25.173Z,4.56
2023-03-13T20:06:52.964Z,4.60
2023-03-13T20:09:21.482Z,4.64
2023-03-13T20:11:49.335Z,4.62
2023-03-13T20:14:17.152Z,4.69
2023-03-13T20:16:47.484Z,4.68
2023-03-13T20:19:17.282Z,4.74
2023-03-13T20:21:46.642Z,4.79
2023-03-13T20:24:14.417Z,4.82
2023-03-13T20:26:42.592Z,4.82
2023-03-13T20:29:10.354Z,4.87
2023-03-13T20:31:38.345Z,4.91
2023-03-13T20:34:06.105Z,4.95
2023-03-13T20:36:35.243Z,4.97
2023-03-13T20:39:03.074Z,4.97
2023-03-13T20:41:31.249Z,5.01
2023-03-13T20:43:59.139Z,5.04
2023-03-13T20:46:27.144Z,5.07
2023-03-13T20:48:56.767Z,5.10
2023-03-13T20:51:25.637Z,5.05
2023-03-13T20:53:54.809Z,5.16
2023-03-13T20:56:22.552Z,5.22
2023-03-13T20:58:50.282Z,5.23
2023-03-13T21:01:19.591Z,5.24
2023-03-13T21:03:47.604Z,5.26
2023-03-13T21:06:17.690Z,5.33
2023-03-13T21:08:46.578Z,5.34
2023-03-13T21:11:17.512Z,5.33
2023-03-13T21:13:45.851Z,5.32
2023-03-13T21:16:14.567Z,5.39
2023-03-13T21:18:42.792Z,5.41
2023-03-13T21:21:12.536Z,5.37
2023-03-13T21:23:40.352Z,5.34
2023-03-13T21:26:08.377Z,5.32
2023-03-13T21:28:37.722Z,5.31
2023-03-13T21:31:10.355Z,5.32
2023-03-13T21:33:38.437Z,5.29
2023-03-13T21:36:06.921Z,5.23
2023-03-13T21:38:34.675Z,5.32
2023-03-13T21:41:02.522Z,5.35
2023-03-13T21:43:30.383Z,5.32
2023-03-13T21:45:59.757Z,5.33
2023-03-13T21:48:27.505Z,5.37
2023-03-13T21:50:56.919Z,5.34
2023-03-13T21:53:24.697Z,5.31
2023-03-13T21:55:52.862Z,5.32
2023-03-13T21:58:20.600Z,5.26
2023-03-13T22:00:48.694Z,5.27
2023-03-13T22:03:17.856Z,5.26
2023-03-13T22:05:45.970Z,5.24
2023-03-13T22:08:13.940Z,5.26
2023-03-13T22:10:41.893Z,5.22
2023-03-13T22:13:11.302Z,5.29
2023-03-13T22:15:39.077Z,5.28
2023-03-13T22:18:06.894Z,5.26
2023-03-13T22:20:36.049Z,5.31
2023-03-13T22:23:03.984Z,5.24
2023-03-13T22:25:31.706Z,5.27
2023-03-13T22:27:59.520Z,5.18
2023-03-13T22:30:27.235Z,5.24
2023-03-13T22:32:54.985Z,5.24
2023-03-13T22:35:22.905Z,5.27
2023-03-13T22:37:52.153Z,5.23
2023-03-13T22:40:20.340Z,5.22
2023-03-13T22:42:48.373Z,5.21
2023-03-13T22:45:16.248Z,5.24
2023-03-13T22:47:44.002Z,5.24
2023-03-13T22:50:13.096Z,5.22
2023-03-13T22:52:41.468Z,5.21
2023-03-13T22:55:10.889Z,5.19
2023-03-13T22:57:38.584Z,5.19
2023-03-13T23:00:09.686Z,5.17
2023-03-13T23:02:37.460Z,5.18
2023-03-13T23:05:05.660Z,5.20
2023-03-13T23:07:33.452Z,5.19
2023-03-13T23:10:01.207Z,5.11
2023-03-13T23:12:30.946Z,5.18
2023-03-13T23:15:00.044Z,5.15
2023-03-13T23:17:29.417Z,5.12
2023-03-13T23:19:57.181Z,5.13
2023-03-13T23:22:29.050Z,5.11
2023-03-13T23:24:56.816Z,5.13
2023-03-13T23:27:24.776Z,5.14
2023-03-13T23:29:55.224Z,5.18
2023-03-13T23:32:23.205Z,5.17
2023-03-13T23:34:51.032Z,5.22
2023-03-13T23:37:18.765Z,5.23
2023-03-13T23:39:46.491Z,5.18
2023-03-13T23:42:14.240Z,5.21
2023-03-13T23:44:42.020Z,5.24
2023-03-13T23:47:11.076Z,5.27
2023-03-13T23:49:38.780Z,5.25
2023-03-13T23:52:06.592Z,5.28
2023-03-13T23:54:34.439Z,5.24
2023-03-13T23:57:02.204Z,5.29
2023-03-13T23:59:30.074Z,5.32
